Terminal Aerodrome Forecast
Issued by NWS Sioux Falls, SD

Home | Current Version | Previous Version | Text Only | Print | Product List | Glossary On
Versions: 1 2 3 4 5 6 7 8 9 10 11 12 13 14 15 16 17 18 19 20 21
000
FTUS43 KFSD 222325 AAC
TAFSUX
TAF AMD
KSUX 222325Z 2223/2324 32007KT P6SM FEW250
     FM230300 32007KT P6SM BKN015
     FM231100 VRB03KT 5SM BR BKN010
     FM231500 00000KT P6SM BKN015
     FM231600 00000KT P6SM BKN045
     FM231900 15006KT P6SM BKN150=

USA.gov is the U.S. government's official web portal to all federal, state and local government web resources and services.